Allenstown, Australia

7:25 AM AEST on December 10, 2016 (GMT +1000)
Rockhampton City | | Change Station

Elev 52 ft 23.38 °S, 150.50 °E | Updated 42 seconds ago

Scattered Clouds
Scattered Clouds
77.2 °F
Feels Like 79 °F
N
1.3
Wind Variable Wind from ESE
Gusts 2.5 mph

Today
High -- | Low -- °F
--% Chance of Precip.
Yesterday
High -- | Low -- °F
Precip. -- in
Pressure 29.95 in
Visibility 6.2 miles
Clouds Scattered Clouds 800 ft
Heat Index 79 °F
Dew Point 71 °F
Humidity 82%
Rainfall 0.14 in
Snow Depth Not available.
5:04 AM 6:37 PM
Waxing Gibbous, 77% visible
METAR YBRK 092100Z AUTO 14006KT 9999 // SCT008 25/23 Q1014 RF00.0/007.0
Pressure 29.95 in
Visibility 6.2 miles
Clouds Scattered Clouds 800 ft
Heat Index 79 °F
Dew Point 71 °F
Humidity 82%
Rainfall 0.14 in
Snow Depth Not available.
5:04 AM 6:37 PM
Waxing Gibbous, 77% visible
METAR YBRK 092100Z AUTO 14006KT 9999 // SCT008 25/23 Q1014 RF00.0/007.0

10-Day Weather Forecast

×

Almanac

Astronomy

Dec. 10, 2016 Rise Set
Actual Time
Civil Twilight
Nautical Twilight
Astronomical Twilight
Moon
Length of Visible Light
Length of Day
Tomorrow will be .
, % of the Moon is Illuminated

Today's Extremes

Country Highs Country Lows

Community

WunderPhotos

Upload Photos

1,956,517 photos uploaded!

WunderBlog® & News

Nearby

Air Quality

  Air Quality AQ Index Pollutant
Not available.

Snow Depth

Station Depth Elevation

Earthquake Activity

City Distance Mag. Time & Date
Minimum magnitude displayed is 2.5.

Coastal Water Temperatures

Place Temperature

Stations

Nearby Weather Stations

Station Location Temp. Windchill Dew Point Humidity Wind Precip. Elev Updated Type